Terminal Aerodrome Forecast
Issued by NWS

Home | Current Version | Previous Version | Text Only | Print | Product List | Glossary On
Versions: 1 2 3 4 5 6 7 8 9 10 11 12 13 14
000
FTUS46 KLOX 310500
TAFWJF
TAF
KWJF 310524Z 3106/0106 24012KT P6SM SCT200
     FM311800 23016KT P6SM SCT150
     FM312100 23018G28KT P6SM SCT060 BKN100
     FM010400 25014KT P6SM SCT040 BKN080=

USA.gov is the U.S. government's official web portal to all federal, state and local government web resources and services.